sensor_id;sensor_type;location;lat;lon;timestamp;temperature;humidity
45237;DHT22;30973;51.442;3.580;2022-09-12T00:01:54;19.60;99.90
45237;DHT22;30973;51.442;3.580;2022-09-12T00:04:21;19.60;99.90
45237;DHT22;30973;51.442;3.580;2022-09-12T00:06:48;19.60;99.90
45237;DHT22;30973;51.442;3.580;2022-09-12T00:09:15;19.60;99.90
45237;DHT22;30973;51.442;3.580;2022-09-12T00:11:44;19.60;99.90
45237;DHT22;30973;51.442;3.580;2022-09-12T00:14:14;19.60;99.90
45237;DHT22;30973;51.442;3.580;2022-09-12T00:16:42;19.60;99.90
45237;DHT22;30973;51.442;3.580;2022-09-12T00:19:10;19.60;99.90
45237;DHT22;30973;51.442;3.580;2022-09-12T00:21:38;19.60;99.90
45237;DHT22;30973;51.442;3.580;2022-09-12T00:24:06;19.60;99.90
45237;DHT22;30973;51.442;3.580;2022-09-12T00:26:33;19.60;99.90
45237;DHT22;30973;51.442;3.580;2022-09-12T00:29:00;19.60;99.90
45237;DHT22;30973;51.442;3.580;2022-09-12T00:31:27;19.60;99.90
45237;DHT22;30973;51.442;3.580;2022-09-12T00:33:56;19.60;99.90
45237;DHT22;30973;51.442;3.580;2022-09-12T00:36:24;19.60;99.90
45237;DHT22;30973;51.442;3.580;2022-09-12T00:38:52;19.50;99.90
45237;DHT22;30973;51.442;3.580;2022-09-12T00:41:26;19.50;99.90
45237;DHT22;30973;51.442;3.580;2022-09-12T00:43:59;19.50;99.90
45237;DHT22;30973;51.442;3.580;2022-09-12T00:49:26;19.50;99.90
45237;DHT22;30973;51.442;3.580;2022-09-12T00:54:23;19.40;99.90
45237;DHT22;30973;51.442;3.580;2022-09-12T00:56:55;19.50;99.90
45237;DHT22;30973;51.442;3.580;2022-09-12T00:59:31;19.40;99.90
45237;DHT22;30973;51.442;3.580;2022-09-12T01:02:00;19.40;99.90
45237;DHT22;30973;51.442;3.580;2022-09-12T01:04:28;19.40;99.90
45237;DHT22;30973;51.442;3.580;2022-09-12T01:06:56;19.40;99.90
45237;DHT22;30973;51.442;3.580;2022-09-12T01:09:24;19.40;99.90
45237;DHT22;30973;51.442;3.580;2022-09-12T01:11:52;19.40;99.90
45237;DHT22;30973;51.442;3.580;2022-09-12T01:14:19;19.40;99.90
45237;DHT22;30973;51.442;3.580;2022-09-12T01:16:48;19.40;99.90
45237;DHT22;30973;51.442;3.580;2022-09-12T01:30:14;19.40;99.90
45237;DHT22;30973;51.442;3.580;2022-09-12T01:35:30;19.40;99.90
45237;DHT22;30973;51.442;3.580;2022-09-12T01:38:22;19.40;99.90
45237;DHT22;30973;51.442;3.580;2022-09-12T01:41:02;19.40;99.90
45237;DHT22;30973;51.442;3.580;2022-09-12T01:43:36;19.40;99.90
45237;DHT22;30973;51.442;3.580;2022-09-12T01:46:20;19.40;99.90
45237;DHT22;30973;51.442;3.580;2022-09-12T01:51:37;19.40;99.90
45237;DHT22;30973;51.442;3.580;2022-09-12T01:54:21;19.40;99.90
45237;DHT22;30973;51.442;3.580;2022-09-12T01:56:54;20.60;99.90
45237;DHT22;30973;51.442;3.580;2022-09-12T02:02:00;19.40;99.90
45237;DHT22;30973;51.442;3.580;2022-09-12T02:04:33;19.40;99.90
45237;DHT22;30973;51.442;3.580;2022-09-12T02:07:09;19.40;99.90
45237;DHT22;30973;51.442;3.580;2022-09-12T02:09:43;19.40;99.90
45237;DHT22;30973;51.442;3.580;2022-09-12T02:12:16;19.40;99.90
45237;DHT22;30973;51.442;3.580;2022-09-12T02:14:50;19.30;99.90
45237;DHT22;30973;51.442;3.580;2022-09-12T02:17:22;19.40;99.90
45237;DHT22;30973;51.442;3.580;2022-09-12T02:19:58;19.40;99.90
45237;DHT22;30973;51.442;3.580;2022-09-12T02:22:28;19.40;99.90
45237;DHT22;30973;51.442;3.580;2022-09-12T02:24:59;19.30;99.90
45237;DHT22;30973;51.442;3.580;2022-09-12T02:27:44;19.30;99.90
45237;DHT22;30973;51.442;3.580;2022-09-12T02:30:12;19.30;99.90
45237;DHT22;30973;51.442;3.580;2022-09-12T02:35:37;19.20;99.90
45237;DHT22;30973;51.442;3.580;2022-09-12T02:40:37;19.30;99.90
45237;DHT22;30973;51.442;3.580;2022-09-12T02:43:05;19.20;99.90
45237;DHT22;30973;51.442;3.580;2022-09-12T02:45:33;19.20;99.90
45237;DHT22;30973;51.442;3.580;2022-09-12T02:48:07;19.20;99.90
45237;DHT22;30973;51.442;3.580;2022-09-12T02:50:35;19.20;99.90
45237;DHT22;30973;51.442;3.580;2022-09-12T02:53:04;19.20;99.90
45237;DHT22;30973;51.442;3.580;2022-09-12T02:55:34;19.10;99.90
45237;DHT22;30973;51.442;3.580;2022-09-12T02:58:03;19.20;99.90
45237;DHT22;30973;51.442;3.580;2022-09-12T03:00:36;19.20;99.90
45237;DHT22;30973;51.442;3.580;2022-09-12T03:06:23;19.10;99.90
45237;DHT22;30973;51.442;3.580;2022-09-12T03:11:58;19.10;99.90
45237;DHT22;30973;51.442;3.580;2022-09-12T03:22:22;19.00;99.90
45237;DHT22;30973;51.442;3.580;2022-09-12T03:25:31;19.00;99.90
45237;DHT22;30973;51.442;3.580;2022-09-12T03:28:12;19.00;99.90
45237;DHT22;30973;51.442;3.580;2022-09-12T03:30:42;18.90;99.90
45237;DHT22;30973;51.442;3.580;2022-09-12T03:33:15;18.90;99.90
45237;DHT22;30973;51.442;3.580;2022-09-12T03:35:42;18.80;99.90
45237;DHT22;30973;51.442;3.580;2022-09-12T03:38:09;18.80;99.90
45237;DHT22;30973;51.442;3.580;2022-09-12T03:40:37;18.80;99.90
45237;DHT22;30973;51.442;3.580;2022-09-12T03:43:06;18.90;99.90
45237;DHT22;30973;51.442;3.580;2022-09-12T03:45:34;18.80;99.90
45237;DHT22;30973;51.442;3.580;2022-09-12T03:48:01;18.80;99.90
45237;DHT22;30973;51.442;3.580;2022-09-12T07:06:05;19.10;99.90
45237;DHT22;30973;51.442;3.580;2022-09-12T07:08:33;19.10;99.90
45237;DHT22;30973;51.442;3.580;2022-09-12T07:13:39;19.30;99.90
45237;DHT22;30973;51.442;3.580;2022-09-12T07:16:07;19.40;99.90
45237;DHT22;30973;51.442;3.580;2022-09-12T07:18:36;19.50;99.90
45237;DHT22;30973;51.442;3.580;2022-09-12T07:21:06;19.60;99.90
45237;DHT22;30973;51.442;3.580;2022-09-12T07:23:33;19.70;99.90
45237;DHT22;30973;51.442;3.580;2022-09-12T07:26:01;19.70;99.90
45237;DHT22;30973;51.442;3.580;2022-09-12T07:28:30;19.70;99.90
45237;DHT22;30973;51.442;3.580;2022-09-12T07:31:10;19.70;99.90
45237;DHT22;30973;51.442;3.580;2022-09-12T07:33:38;19.90;99.90
45237;DHT22;30973;51.442;3.580;2022-09-12T07:36:07;19.90;99.90
45237;DHT22;30973;51.442;3.580;2022-09-12T07:38:38;20.00;99.90
45237;DHT22;30973;51.442;3.580;2022-09-12T07:41:15;20.00;99.90
45237;DHT22;30973;51.442;3.580;2022-09-12T07:43:43;20.10;99.90
45237;DHT22;30973;51.442;3.580;2022-09-12T07:46:10;20.10;99.90
45237;DHT22;30973;51.442;3.580;2022-09-12T07:48:38;20.10;99.90
45237;DHT22;30973;51.442;3.580;2022-09-12T07:51:07;20.10;99.90
45237;DHT22;30973;51.442;3.580;2022-09-12T07:53:39;20.30;99.90
45237;DHT22;30973;51.442;3.580;2022-09-12T07:56:08;20.30;99.90
45237;DHT22;30973;51.442;3.580;2022-09-12T07:58:38;20.40;99.90
45237;DHT22;30973;51.442;3.580;2022-09-12T08:01:06;20.40;99.90
45237;DHT22;30973;51.442;3.580;2022-09-12T08:03:35;20.60;99.90
45237;DHT22;30973;51.442;3.580;2022-09-12T08:06:07;20.60;99.90
45237;DHT22;30973;51.442;3.580;2022-09-12T08:08:35;20.60;99.90
45237;DHT22;30973;51.442;3.580;2022-09-12T08:11:04;20.60;99.90
45237;DHT22;30973;51.442;3.580;2022-09-12T08:13:33;20.70;99.90
45237;DHT22;30973;51.442;3.580;2022-09-12T08:16:03;20.80;99.90
45237;DHT22;30973;51.442;3.580;2022-09-12T08:18:31;20.90;99.90
45237;DHT22;30973;51.442;3.580;2022-09-12T08:20:59;21.00;99.90
45237;DHT22;30973;51.442;3.580;2022-09-12T08:23:27;21.10;99.90
45237;DHT22;30973;51.442;3.580;2022-09-12T08:25:59;21.10;99.90
45237;DHT22;30973;51.442;3.580;2022-09-12T08:28:33;21.20;99.90
45237;DHT22;30973;51.442;3.580;2022-09-12T08:31:04;21.40;99.90
45237;DHT22;30973;51.442;3.580;2022-09-12T08:33:32;21.40;99.90
45237;DHT22;30973;51.442;3.580;2022-09-12T08:38:30;21.60;99.60
45237;DHT22;30973;51.442;3.580;2022-09-12T08:41:07;21.70;99.70
45237;DHT22;30973;51.442;3.580;2022-09-12T08:43:52;21.90;99.80
45237;DHT22;30973;51.442;3.580;2022-09-12T08:46:31;22.10;99.60
45237;DHT22;30973;51.442;3.580;2022-09-12T08:49:00;22.20;99.00
45237;DHT22;30973;51.442;3.580;2022-09-12T08:51:30;22.20;99.00
45237;DHT22;30973;51.442;3.580;2022-09-12T08:54:00;22.20;98.90
45237;DHT22;30973;51.442;3.580;2022-09-12T08:56:31;22.30;98.60
45237;DHT22;30973;51.442;3.580;2022-09-12T08:59:02;22.40;98.40
45237;DHT22;30973;51.442;3.580;2022-09-12T09:01:36;22.40;98.30
45237;DHT22;30973;51.442;3.580;2022-09-12T09:04:21;22.60;98.60
45237;DHT22;30973;51.442;3.580;2022-09-12T09:17:38;23.10;97.50
45237;DHT22;30973;51.442;3.580;2022-09-12T09:23:33;23.20;98.10
45237;DHT22;30973;51.442;3.580;2022-09-12T09:26:05;23.40;98.10
45237;DHT22;30973;51.442;3.580;2022-09-12T09:28:45;23.40;97.50
45237;DHT22;30973;51.442;3.580;2022-09-12T09:31:22;23.50;97.50
45237;DHT22;30973;51.442;3.580;2022-09-12T09:33:53;23.60;97.00
45237;DHT22;30973;51.442;3.580;2022-09-12T09:39:32;23.80;97.50
45237;DHT22;30973;51.442;3.580;2022-09-12T09:44:28;23.90;96.50
45237;DHT22;30973;51.442;3.580;2022-09-12T09:46:57;23.90;96.00
45237;DHT22;30973;51.442;3.580;2022-09-12T09:49:30;24.00;96.50
45237;DHT22;30973;51.442;3.580;2022-09-12T09:51:59;24.10;96.70
45237;DHT22;30973;51.442;3.580;2022-09-12T09:54:34;24.20;96.30
45237;DHT22;30973;51.442;3.580;2022-09-12T09:57:02;24.40;95.90
45237;DHT22;30973;51.442;3.580;2022-09-12T09:59:32;24.30;96.10
45237;DHT22;30973;51.442;3.580;2022-09-12T10:04:40;24.20;95.50
45237;DHT22;30973;51.442;3.580;2022-09-12T10:07:19;24.20;95.60
45237;DHT22;30973;51.442;3.580;2022-09-12T10:10:14;24.20;94.90
45237;DHT22;30973;51.442;3.580;2022-09-12T10:12:41;24.30;95.00
45237;DHT22;30973;51.442;3.580;2022-09-12T10:15:20;24.30;95.30
45237;DHT22;30973;51.442;3.580;2022-09-12T10:17:49;24.40;95.30
45237;DHT22;30973;51.442;3.580;2022-09-12T10:20:38;24.50;94.60
45237;DHT22;30973;51.442;3.580;2022-09-12T10:25:52;24.50;94.70
45237;DHT22;30973;51.442;3.580;2022-09-12T10:28:31;24.50;94.90
45237;DHT22;30973;51.442;3.580;2022-09-12T10:30:58;24.70;94.90
45237;DHT22;30973;51.442;3.580;2022-09-12T10:33:28;24.70;95.10
45237;DHT22;30973;51.442;3.580;2022-09-12T10:36:02;24.70;94.60
45237;DHT22;30973;51.442;3.580;2022-09-12T10:38:32;24.70;94.60
45237;DHT22;30973;51.442;3.580;2022-09-12T10:41:08;24.80;94.90
45237;DHT22;30973;51.442;3.580;2022-09-12T10:43:37;24.90;94.20
45237;DHT22;30973;51.442;3.580;2022-09-12T10:48:51;25.00;94.50
45237;DHT22;30973;51.442;3.580;2022-09-12T10:51:34;25.00;94.20
45237;DHT22;30973;51.442;3.580;2022-09-12T10:54:04;25.00;93.40
45237;DHT22;30973;51.442;3.580;2022-09-12T10:56:35;25.10;93.90
45237;DHT22;30973;51.442;3.580;2022-09-12T10:59:11;25.20;93.30
45237;DHT22;30973;51.442;3.580;2022-09-12T11:01:48;25.20;93.70
45237;DHT22;30973;51.442;3.580;2022-09-12T11:31:55;25.90;92.80
45237;DHT22;30973;51.442;3.580;2022-09-12T11:34:57;25.90;92.10
45237;DHT22;30973;51.442;3.580;2022-09-12T11:40:49;26.10;92.60
45237;DHT22;30973;51.442;3.580;2022-09-12T11:46:38;26.30;92.10
45237;DHT22;30973;51.442;3.580;2022-09-12T11:52:09;26.30;91.30
45237;DHT22;30973;51.442;3.580;2022-09-12T11:54:41;26.30;91.80
45237;DHT22;30973;51.442;3.580;2022-09-12T11:57:44;26.20;91.90
45237;DHT22;30973;51.442;3.580;2022-09-12T12:00:19;26.30;91.50
45237;DHT22;30973;51.442;3.580;2022-09-12T12:03:19;26.40;92.30
45237;DHT22;30973;51.442;3.580;2022-09-12T12:08:21;26.60;91.60
45237;DHT22;30973;51.442;3.580;2022-09-12T12:13:45;26.50;91.60
45237;DHT22;30973;51.442;3.580;2022-09-12T12:16:26;26.40;91.10
45237;DHT22;30973;51.442;3.580;2022-09-12T12:19:41;26.40;92.00
45237;DHT22;30973;51.442;3.580;2022-09-12T12:21:47;26.40;91.50
45237;DHT22;30973;51.442;3.580;2022-09-12T12:24:23;26.50;91.70
45237;DHT22;30973;51.442;3.580;2022-09-12T12:26:55;26.60;91.50
45237;DHT22;30973;51.442;3.580;2022-09-12T12:29:42;26.70;91.20
45237;DHT22;30973;51.442;3.580;2022-09-12T12:34:46;26.70;91.40
45237;DHT22;30973;51.442;3.580;2022-09-12T12:39:57;26.70;91.50
45237;DHT22;30973;51.442;3.580;2022-09-12T12:47:54;26.70;91.30
45237;DHT22;30973;51.442;3.580;2022-09-12T12:50:25;26.70;91.60
45237;DHT22;30973;51.442;3.580;2022-09-12T12:58:05;26.90;90.50
45237;DHT22;30973;51.442;3.580;2022-09-12T13:00:39;26.90;90.70
45237;DHT22;30973;51.442;3.580;2022-09-12T13:03:09;26.80;88.90
45237;DHT22;30973;51.442;3.580;2022-09-12T13:05:46;26.80;90.30
45237;DHT22;30973;51.442;3.580;2022-09-12T13:10:55;26.80;90.10
45237;DHT22;30973;51.442;3.580;2022-09-12T13:15:59;26.80;88.80
45237;DHT22;30973;51.442;3.580;2022-09-12T13:18:45;26.70;90.00
45237;DHT22;30973;51.442;3.580;2022-09-12T13:21:15;26.70;89.60
45237;DHT22;30973;51.442;3.580;2022-09-12T13:23:43;26.60;90.20
45237;DHT22;30973;51.442;3.580;2022-09-12T13:26:22;26.50;90.00
45237;DHT22;30973;51.442;3.580;2022-09-12T13:29:08;26.60;90.10
45237;DHT22;30973;51.442;3.580;2022-09-12T13:31:36;26.60;89.80
45237;DHT22;30973;51.442;3.580;2022-09-12T13:34:05;26.60;89.60
45237;DHT22;30973;51.442;3.580;2022-09-12T13:39:46;26.70;90.60
45237;DHT22;30973;51.442;3.580;2022-09-12T13:42:40;26.70;90.50
45237;DHT22;30973;51.442;3.580;2022-09-12T13:45:22;26.80;90.20
45237;DHT22;30973;51.442;3.580;2022-09-12T13:48:00;26.70;90.00
45237;DHT22;30973;51.442;3.580;2022-09-12T13:50:45;26.80;89.80
45237;DHT22;30973;51.442;3.580;2022-09-12T13:53:20;26.90;90.80
45237;DHT22;30973;51.442;3.580;2022-09-12T13:55:53;26.80;90.20
45237;DHT22;30973;51.442;3.580;2022-09-12T14:03:30;26.80;91.50
45237;DHT22;30973;51.442;3.580;2022-09-12T14:06:15;26.90;90.70
45237;DHT22;30973;51.442;3.580;2022-09-12T14:08:46;26.80;90.70
45237;DHT22;30973;51.442;3.580;2022-09-12T14:11:23;26.80;91.00
45237;DHT22;30973;51.442;3.580;2022-09-12T14:13:52;26.80;90.70
45237;DHT22;30973;51.442;3.580;2022-09-12T14:16:21;26.80;89.60
45237;DHT22;30973;51.442;3.580;2022-09-12T14:18:49;26.70;90.20
45237;DHT22;30973;51.442;3.580;2022-09-12T14:21:31;26.60;90.10
45237;DHT22;30973;51.442;3.580;2022-09-12T14:24:00;26.60;88.30
45237;DHT22;30973;51.442;3.580;2022-09-12T14:26:32;26.50;90.20
45237;DHT22;30973;51.442;3.580;2022-09-12T14:29:00;26.50;90.40
45237;DHT22;30973;51.442;3.580;2022-09-12T14:31:35;26.50;90.60
45237;DHT22;30973;51.442;3.580;2022-09-12T14:34:22;26.50;90.50
45237;DHT22;30973;51.442;3.580;2022-09-12T14:36:51;26.60;90.60
45237;DHT22;30973;51.442;3.580;2022-09-12T14:41:48;26.50;90.50
45237;DHT22;30973;51.442;3.580;2022-09-12T14:44:26;26.50;89.70
45237;DHT22;30973;51.442;3.580;2022-09-12T14:46:53;26.40;89.40
45237;DHT22;30973;51.442;3.580;2022-09-12T14:49:33;26.40;89.20
45237;DHT22;30973;51.442;3.580;2022-09-12T14:52:07;26.30;89.80
45237;DHT22;30973;51.442;3.580;2022-09-12T14:54:37;26.20;90.00
45237;DHT22;30973;51.442;3.580;2022-09-12T14:59:43;26.10;90.30
45237;DHT22;30973;51.442;3.580;2022-09-12T15:02:20;26.10;90.60
45237;DHT22;30973;51.442;3.580;2022-09-12T15:04:50;26.00;90.30
45237;DHT22;30973;51.442;3.580;2022-09-12T15:07:34;25.90;90.10
45237;DHT22;30973;51.442;3.580;2022-09-12T15:10:25;25.90;90.30
45237;DHT22;30973;51.442;3.580;2022-09-12T15:13:15;25.90;90.80
45237;DHT22;30973;51.442;3.580;2022-09-12T15:16:06;25.90;89.80
45237;DHT22;30973;51.442;3.580;2022-09-12T15:18:31;25.90;90.20
45237;DHT22;30973;51.442;3.580;2022-09-12T15:21:01;25.80;89.60
45237;DHT22;30973;51.442;3.580;2022-09-12T15:26:04;25.50;91.00
45237;DHT22;30973;51.442;3.580;2022-09-12T15:28:32;25.50;91.10
45237;DHT22;30973;51.442;3.580;2022-09-12T15:31:06;25.50;91.10
45237;DHT22;30973;51.442;3.580;2022-09-12T15:33:33;25.50;91.30
45237;DHT22;30973;51.442;3.580;2022-09-12T15:36:01;25.50;91.10
45237;DHT22;30973;51.442;3.580;2022-09-12T15:38:28;25.50;91.10
45237;DHT22;30973;51.442;3.580;2022-09-12T15:40:55;25.50;90.80
45237;DHT22;30973;51.442;3.580;2022-09-12T15:43:23;25.50;91.40
45237;DHT22;30973;51.442;3.580;2022-09-12T15:45:51;25.50;91.60
45237;DHT22;30973;51.442;3.580;2022-09-12T15:48:19;25.50;91.50
45237;DHT22;30973;51.442;3.580;2022-09-12T15:50:46;25.50;91.90
45237;DHT22;30973;51.442;3.580;2022-09-12T15:53:15;25.50;91.80
45237;DHT22;30973;51.442;3.580;2022-09-12T15:55:43;25.50;92.20
45237;DHT22;30973;51.442;3.580;2022-09-12T15:58:10;25.50;92.00
45237;DHT22;30973;51.442;3.580;2022-09-12T16:00:37;25.50;92.10
45237;DHT22;30973;51.442;3.580;2022-09-12T16:03:04;25.50;92.00
45237;DHT22;30973;51.442;3.580;2022-09-12T16:05:32;25.50;91.90
45237;DHT22;30973;51.442;3.580;2022-09-12T16:07:59;25.60;92.00
45237;DHT22;30973;51.442;3.580;2022-09-12T16:10:28;25.60;91.70
45237;DHT22;30973;51.442;3.580;2022-09-12T16:12:56;25.60;91.60
45237;DHT22;30973;51.442;3.580;2022-09-12T16:15:24;25.60;90.80
45237;DHT22;30973;51.442;3.580;2022-09-12T16:17:51;25.60;90.50
45237;DHT22;30973;51.442;3.580;2022-09-12T16:20:19;25.60;91.00
45237;DHT22;30973;51.442;3.580;2022-09-12T16:22:46;25.60;91.10
45237;DHT22;30973;51.442;3.580;2022-09-12T16:25:13;25.50;91.00
45237;DHT22;30973;51.442;3.580;2022-09-12T16:27:40;25.50;91.40
45237;DHT22;30973;51.442;3.580;2022-09-12T16:30:08;25.50;91.40
45237;DHT22;30973;51.442;3.580;2022-09-12T16:32:35;25.50;91.70
45237;DHT22;30973;51.442;3.580;2022-09-12T16:35:03;25.40;92.00
45237;DHT22;30973;51.442;3.580;2022-09-12T16:37:30;25.30;91.80
45237;DHT22;30973;51.442;3.580;2022-09-12T16:40:01;25.30;92.00
45237;DHT22;30973;51.442;3.580;2022-09-12T16:42:28;25.20;92.10
45237;DHT22;30973;51.442;3.580;2022-09-12T16:44:55;25.20;92.00
45237;DHT22;30973;51.442;3.580;2022-09-12T16:47:22;25.10;92.20
45237;DHT22;30973;51.442;3.580;2022-09-12T16:49:49;25.10;92.30
45237;DHT22;30973;51.442;3.580;2022-09-12T16:52:17;25.10;92.20
45237;DHT22;30973;51.442;3.580;2022-09-12T16:54:44;25.10;92.40
45237;DHT22;30973;51.442;3.580;2022-09-12T16:57:11;25.10;92.70
45237;DHT22;30973;51.442;3.580;2022-09-12T16:59:38;25.00;92.70
45237;DHT22;30973;51.442;3.580;2022-09-12T17:02:06;24.90;92.90
45237;DHT22;30973;51.442;3.580;2022-09-12T17:04:33;24.80;93.10
45237;DHT22;30973;51.442;3.580;2022-09-12T17:07:00;24.70;93.10
45237;DHT22;30973;51.442;3.580;2022-09-12T17:09:27;24.70;93.20
45237;DHT22;30973;51.442;3.580;2022-09-12T17:11:55;24.60;93.30
45237;DHT22;30973;51.442;3.580;2022-09-12T17:14:23;24.60;93.20
45237;DHT22;30973;51.442;3.580;2022-09-12T17:16:50;24.50;93.20
45237;DHT22;30973;51.442;3.580;2022-09-12T17:19:23;24.50;93.10
45237;DHT22;30973;51.442;3.580;2022-09-12T17:21:59;24.50;93.00
45237;DHT22;30973;51.442;3.580;2022-09-12T17:24:26;24.40;92.90
45237;DHT22;30973;51.442;3.580;2022-09-12T17:26:53;24.30;93.00
45237;DHT22;30973;51.442;3.580;2022-09-12T17:29:20;24.30;93.10
45237;DHT22;30973;51.442;3.580;2022-09-12T17:31:47;24.30;93.10
45237;DHT22;30973;51.442;3.580;2022-09-12T17:34:14;24.30;93.20
45237;DHT22;30973;51.442;3.580;2022-09-12T17:36:44;24.30;93.20
45237;DHT22;30973;51.442;3.580;2022-09-12T17:39:12;24.20;93.20
45237;DHT22;30973;51.442;3.580;2022-09-12T17:41:40;24.20;93.20
45237;DHT22;30973;51.442;3.580;2022-09-12T17:44:12;24.10;93.20
45237;DHT22;30973;51.442;3.580;2022-09-12T17:46:41;24.10;93.20
45237;DHT22;30973;51.442;3.580;2022-09-12T17:49:13;24.00;93.20
45237;DHT22;30973;51.442;3.580;2022-09-12T17:51:41;24.00;93.20
45237;DHT22;30973;51.442;3.580;2022-09-12T17:54:14;23.90;93.20
45237;DHT22;30973;51.442;3.580;2022-09-12T17:56:42;23.90;93.20
45237;DHT22;30973;51.442;3.580;2022-09-12T17:59:14;23.90;93.30
45237;DHT22;30973;51.442;3.580;2022-09-12T18:01:41;23.90;93.40
45237;DHT22;30973;51.442;3.580;2022-09-12T18:04:27;23.90;93.60
45237;DHT22;30973;51.442;3.580;2022-09-12T18:06:55;23.80;93.70
45237;DHT22;30973;51.442;3.580;2022-09-12T18:09:23;23.80;93.70
45237;DHT22;30973;51.442;3.580;2022-09-12T18:11:54;23.70;93.70
45237;DHT22;30973;51.442;3.580;2022-09-12T18:14:21;23.70;93.80
45237;DHT22;30973;51.442;3.580;2022-09-12T18:16:48;23.60;93.90
45237;DHT22;30973;51.442;3.580;2022-09-12T18:19:16;23.60;93.90
45237;DHT22;30973;51.442;3.580;2022-09-12T18:21:43;23.60;94.00
45237;DHT22;30973;51.442;3.580;2022-09-12T18:24:11;23.50;94.10
45237;DHT22;30973;51.442;3.580;2022-09-12T18:26:38;23.60;94.30
45237;DHT22;30973;51.442;3.580;2022-09-12T18:29:05;23.50;94.40
45237;DHT22;30973;51.442;3.580;2022-09-12T18:31:33;23.50;94.40
45237;DHT22;30973;51.442;3.580;2022-09-12T18:34:00;23.50;94.40
45237;DHT22;30973;51.442;3.580;2022-09-12T18:36:29;23.40;94.30
45237;DHT22;30973;51.442;3.580;2022-09-12T18:38:57;23.40;94.40
45237;DHT22;30973;51.442;3.580;2022-09-12T18:41:25;23.40;94.40
45237;DHT22;30973;51.442;3.580;2022-09-12T18:43:57;23.40;94.50
45237;DHT22;30973;51.442;3.580;2022-09-12T18:46:26;23.30;94.50
45237;DHT22;30973;51.442;3.580;2022-09-12T18:48:54;23.30;94.60
45237;DHT22;30973;51.442;3.580;2022-09-12T18:51:25;23.20;94.60
45237;DHT22;30973;51.442;3.580;2022-09-12T18:54:01;23.20;94.70
45237;DHT22;30973;51.442;3.580;2022-09-12T18:56:30;23.20;94.70
45237;DHT22;30973;51.442;3.580;2022-09-12T18:59:01;23.20;94.70
45237;DHT22;30973;51.442;3.580;2022-09-12T19:01:30;23.20;94.70
45237;DHT22;30973;51.442;3.580;2022-09-12T19:03:58;23.20;94.80
45237;DHT22;30973;51.442;3.580;2022-09-12T19:06:30;23.10;94.80
45237;DHT22;30973;51.442;3.580;2022-09-12T19:08:58;23.10;94.90
45237;DHT22;30973;51.442;3.580;2022-09-12T19:11:30;23.20;94.90
45237;DHT22;30973;51.442;3.580;2022-09-12T19:13:58;23.10;94.90
45237;DHT22;30973;51.442;3.580;2022-09-12T19:16:26;23.10;94.90
45237;DHT22;30973;51.442;3.580;2022-09-12T19:18:57;23.10;94.90
45237;DHT22;30973;51.442;3.580;2022-09-12T19:21:29;23.10;95.00
45237;DHT22;30973;51.442;3.580;2022-09-12T19:23:58;23.00;95.00
45237;DHT22;30973;51.442;3.580;2022-09-12T19:26:26;23.00;95.00
45237;DHT22;30973;51.442;3.580;2022-09-12T19:28:54;23.00;95.30
45237;DHT22;30973;51.442;3.580;2022-09-12T19:31:21;22.90;95.10
45237;DHT22;30973;51.442;3.580;2022-09-12T19:33:49;22.90;95.20
45237;DHT22;30973;51.442;3.580;2022-09-12T19:36:20;22.80;95.20
45237;DHT22;30973;51.442;3.580;2022-09-12T19:39:07;22.80;95.20
45237;DHT22;30973;51.442;3.580;2022-09-12T19:41:35;22.70;95.60
45237;DHT22;30973;51.442;3.580;2022-09-12T19:44:03;22.70;95.40
45237;DHT22;30973;51.442;3.580;2022-09-12T19:46:30;23.00;98.00
45237;DHT22;30973;51.442;3.580;2022-09-12T19:48:57;22.60;95.50
45237;DHT22;30973;51.442;3.580;2022-09-12T19:51:24;22.50;95.60
45237;DHT22;30973;51.442;3.580;2022-09-12T19:53:52;22.50;95.70
45237;DHT22;30973;51.442;3.580;2022-09-12T19:56:19;22.50;95.80
45237;DHT22;30973;51.442;3.580;2022-09-12T19:58:47;22.50;95.80
45237;DHT22;30973;51.442;3.580;2022-09-12T20:01:25;22.50;95.90
45237;DHT22;30973;51.442;3.580;2022-09-12T20:03:56;22.40;95.90
45237;DHT22;30973;51.442;3.580;2022-09-12T20:06:24;22.50;96.00
45237;DHT22;30973;51.442;3.580;2022-09-12T20:08:51;22.50;96.00
45237;DHT22;30973;51.442;3.580;2022-09-12T20:11:20;22.50;96.00
45237;DHT22;30973;51.442;3.580;2022-09-12T20:13:48;22.50;96.00
45237;DHT22;30973;51.442;3.580;2022-09-12T20:16:18;22.50;96.00
45237;DHT22;30973;51.442;3.580;2022-09-12T20:18:52;22.50;96.00
45237;DHT22;30973;51.442;3.580;2022-09-12T20:21:22;22.50;96.10
45237;DHT22;30973;51.442;3.580;2022-09-12T20:23:51;22.50;96.10
45237;DHT22;30973;51.442;3.580;2022-09-12T20:26:18;22.40;96.10
45237;DHT22;30973;51.442;3.580;2022-09-12T20:28:46;22.50;96.10
45237;DHT22;30973;51.442;3.580;2022-09-12T20:31:15;22.40;96.20
45237;DHT22;30973;51.442;3.580;2022-09-12T20:33:43;22.40;96.20
45237;DHT22;30973;51.442;3.580;2022-09-12T20:36:16;22.40;96.20
45237;DHT22;30973;51.442;3.580;2022-09-12T20:39:02;22.50;96.20
45237;DHT22;30973;51.442;3.580;2022-09-12T20:41:33;22.50;96.30
45237;DHT22;30973;51.442;3.580;2022-09-12T20:44:01;22.50;96.30
45237;DHT22;30973;51.442;3.580;2022-09-12T20:46:28;22.60;96.30
45237;DHT22;30973;51.442;3.580;2022-09-12T20:48:55;22.50;96.30
45237;DHT22;30973;51.442;3.580;2022-09-12T20:51:25;22.50;96.60
45237;DHT22;30973;51.442;3.580;2022-09-12T20:53:53;22.50;96.30
45237;DHT22;30973;51.442;3.580;2022-09-12T20:56:21;22.50;96.40
45237;DHT22;30973;51.442;3.580;2022-09-12T20:58:49;22.50;96.40
45237;DHT22;30973;51.442;3.580;2022-09-12T21:01:16;22.60;96.40
45237;DHT22;30973;51.442;3.580;2022-09-12T21:03:44;22.60;96.50
45237;DHT22;30973;51.442;3.580;2022-09-12T21:06:13;22.60;96.40
45237;DHT22;30973;51.442;3.580;2022-09-12T21:08:40;22.60;96.40
45237;DHT22;30973;51.442;3.580;2022-09-12T21:11:07;22.50;96.50
45237;DHT22;30973;51.442;3.580;2022-09-12T21:13:34;22.50;96.50
45237;DHT22;30973;51.442;3.580;2022-09-12T21:16:07;22.60;96.60
45237;DHT22;30973;51.442;3.580;2022-09-12T21:18:35;22.60;96.60
45237;DHT22;30973;51.442;3.580;2022-09-12T21:21:02;22.60;96.70
45237;DHT22;30973;51.442;3.580;2022-09-12T21:23:30;22.60;96.70
45237;DHT22;30973;51.442;3.580;2022-09-12T21:26:01;22.60;96.80
45237;DHT22;30973;51.442;3.580;2022-09-12T21:28:28;22.60;96.90
45237;DHT22;30973;51.442;3.580;2022-09-12T21:30:55;22.60;96.80
45237;DHT22;30973;51.442;3.580;2022-09-12T21:33:23;22.60;97.00
45237;DHT22;30973;51.442;3.580;2022-09-12T21:35:50;22.60;97.00
45237;DHT22;30973;51.442;3.580;2022-09-12T21:38:18;22.60;97.10
45237;DHT22;30973;51.442;3.580;2022-09-12T21:40:46;22.60;97.20
45237;DHT22;30973;51.442;3.580;2022-09-12T21:43:13;22.60;97.20
45237;DHT22;30973;51.442;3.580;2022-09-12T21:45:40;22.60;97.20
45237;DHT22;30973;51.442;3.580;2022-09-12T21:48:08;22.60;97.30